Time;durP1;ratioP1;P1;durP2;ratioP2;P2;SDS_P1;SDS_P2;PMS_P1;PMS_P2;Temp;Humidity;BMP_temperature;BMP_pressure;BME280_temperature;BME280_humidity;BME280_pressure;Samples;Min_cycle;Max_cycle;Signal;HPM_P1;HPM_P2
2023/08/22 00:00:32;;;;;;;0.05;0.05;;;;;;;;;;5057908;28;20208;-76
2023/08/22 00:02:59;;;;;;;0.10;0.10;;;;;;;;;;5078881;28;20235;-75
2023/08/22 00:05:25;;;;;;;0.10;0.10;;;;;;;;;;5057432;28;20211;-76
2023/08/22 00:07:53;;;;;;;0.00;0.00;;;;;;;;;;5078628;28;20220;-76
2023/08/22 00:10:19;;;;;;;0.00;0.00;;;;;;;;;;5056844;28;20407;-76
2023/08/22 00:12:47;;;;;;;0.00;0.00;;;;;;;;;;5079364;28;20199;-76
2023/08/22 00:15:13;;;;;;;0.10;0.10;;;;;;;;;;5055908;28;20275;-75
2023/08/22 00:17:40;;;;;;;0.00;0.00;;;;;;;;;;5080295;28;20443;-75
2023/08/22 00:20:07;;;;;;;0.00;0.00;;;;;;;;;;5065329;28;20239;-74
2023/08/22 00:22:34;;;;;;;0.10;0.10;;;;;;;;;;5034046;28;20231;-75
2023/08/22 00:25:00;;;;;;;0.10;0.10;;;;;;;;;;5045329;28;20271;-75
2023/08/22 00:27:27;;;;;;;0.00;0.00;;;;;;;;;;5050851;28;20324;-75
2023/08/22 00:29:56;;;;;;;0.05;0.05;;;;;;;;;;5045198;28;20224;-75
2023/08/22 00:32:22;;;;;;;0.00;0.00;;;;;;;;;;5050489;28;20422;-75
2023/08/22 00:34:49;;;;;;;0.00;0.00;;;;;;;;;;5045145;28;20204;-75
2023/08/22 00:37:15;;;;;;;0.00;0.00;;;;;;;;;;5050524;28;20251;-75
2023/08/22 00:39:41;;;;;;;0.00;0.00;;;;;;;;;;5045190;28;20392;-75
2023/08/22 00:42:08;;;;;;;0.00;0.00;;;;;;;;;;5050228;28;20255;-75
2023/08/22 00:44:34;;;;;;;0.05;0.05;;;;;;;;;;5044833;28;20227;-75
2023/08/22 00:47:02;;;;;;;0.10;0.10;;;;;;;;;;5049203;28;20278;-76
2023/08/22 00:49:29;;;;;;;0.05;0.05;;;;;;;;;;5045546;28;20394;-76
2023/08/22 00:51:57;;;;;;;0.10;0.10;;;;;;;;;;5048411;28;20248;-74
2023/08/22 00:54:24;;;;;;;0.03;0.03;;;;;;;;;;5046026;28;20220;-75
2023/08/22 00:56:51;;;;;;;0.08;0.08;;;;;;;;;;5047838;28;20303;-76
2023/08/22 00:59:17;;;;;;;0.00;0.00;;;;;;;;;;5046815;28;20554;-76
2023/08/22 01:01:44;;;;;;;0.10;0.10;;;;;;;;;;5046721;28;20291;-76
2023/08/22 01:04:11;;;;;;;0.10;0.10;;;;;;;;;;5047666;28;20531;-75
2023/08/22 01:06:42;;;;;;;0.00;0.00;;;;;;;;;;5045984;28;20330;-75
2023/08/22 01:09:12;;;;;;;0.10;0.10;;;;;;;;;;5047505;28;20537;-76
2023/08/22 01:11:40;;;;;;;0.05;0.05;;;;;;;;;;5045894;28;20251;-75
2023/08/22 01:14:09;;;;;;;0.10;0.10;;;;;;;;;;5047922;28;20472;-76
2023/08/22 01:16:35;;;;;;;0.00;0.00;;;;;;;;;;5045488;28;20308;-76
2023/08/22 01:19:03;;;;;;;0.00;0.00;;;;;;;;;;5048179;28;20268;-75
2023/08/22 01:21:33;;;;;;;0.00;0.00;;;;;;;;;;5044679;28;20239;-76
2023/08/22 01:24:02;;;;;;;0.00;0.00;;;;;;;;;;5048669;28;20243;-75
2023/08/22 01:26:28;;;;;;;0.00;0.00;;;;;;;;;;5044630;28;20261;-76
2023/08/22 01:28:57;;;;;;;0.00;0.00;;;;;;;;;;5049139;28;20488;-76
2023/08/22 01:31:29;;;;;;;0.00;0.00;;;;;;;;;;5043864;28;20443;-75
2023/08/22 01:33:59;;;;;;;0.00;0.00;;;;;;;;;;5049147;28;20205;-75
2023/08/22 01:36:26;;;;;;;0.00;0.00;;;;;;;;;;5044011;28;20266;-76
2023/08/22 01:38:53;;;;;;;0.10;0.10;;;;;;;;;;5049303;28;20201;-76
2023/08/22 01:41:21;;;;;;;0.00;0.00;;;;;;;;;;5043207;28;20267;-75
2023/08/22 01:43:50;;;;;;;0.03;0.03;;;;;;;;;;5049396;28;20243;-75
2023/08/22 01:46:16;;;;;;;0.10;0.10;;;;;;;;;;5042724;28;20248;-76
2023/08/22 01:48:43;;;;;;;0.10;0.10;;;;;;;;;;5050461;28;20419;-76
2023/08/22 01:51:09;;;;;;;0.00;0.00;;;;;;;;;;5041722;28;20307;-75
2023/08/22 01:53:35;;;;;;;0.00;0.00;;;;;;;;;;5051061;28;20283;-76
2023/08/22 01:56:02;;;;;;;0.05;0.05;;;;;;;;;;5040836;28;20280;-75
2023/08/22 01:58:30;;;;;;;0.00;0.00;;;;;;;;;;5052239;28;20201;-76
2023/08/22 02:00:56;;;;;;;0.10;0.10;;;;;;;;;;5039918;28;20248;-75
2023/08/22 02:03:23;;;;;;;0.00;0.00;;;;;;;;;;5052680;28;20236;-76
2023/08/22 02:05:49;;;;;;;0.00;0.00;;;;;;;;;;5039132;28;20567;-76
2023/08/22 02:08:16;;;;;;;0.00;0.00;;;;;;;;;;5053605;28;20439;-76
2023/08/22 02:10:42;;;;;;;0.08;0.08;;;;;;;;;;5038211;28;20615;-76
2023/08/22 02:13:08;;;;;;;0.00;0.00;;;;;;;;;;5054659;28;20231;-75
2023/08/22 02:15:36;;;;;;;0.00;0.00;;;;;;;;;;5037193;28;20322;-76
2023/08/22 02:18:03;;;;;;;0.00;0.00;;;;;;;;;;5055095;28;20209;-75
2023/08/22 02:20:30;;;;;;;0.10;0.10;;;;;;;;;;5036378;28;20336;-77
2023/08/22 02:22:56;;;;;;;0.10;0.10;;;;;;;;;;5055682;28;20224;-75
2023/08/22 02:25:23;;;;;;;0.10;0.10;;;;;;;;;;5035391;28;20205;-76
2023/08/22 02:27:49;;;;;;;0.00;0.00;;;;;;;;;;5056753;28;20193;-76
2023/08/22 02:30:16;;;;;;;0.10;0.10;;;;;;;;;;5034315;28;20300;-76
2023/08/22 02:32:43;;;;;;;0.08;0.08;;;;;;;;;;5057538;28;20193;-76
2023/08/22 02:35:10;;;;;;;0.00;0.00;;;;;;;;;;5033680;28;20208;-76
2023/08/22 02:37:36;;;;;;;0.43;0.43;;;;;;;;;;5058157;28;20211;-76
2023/08/22 02:40:06;;;;;;;0.10;0.10;;;;;;;;;;5043196;28;20209;-76
2023/08/22 02:42:32;;;;;;;0.00;0.00;;;;;;;;;;5051946;28;20228;-76
2023/08/22 02:44:59;;;;;;;0.00;0.00;;;;;;;;;;5063176;28;20271;-76
2023/08/22 02:47:25;;;;;;;0.00;0.00;;;;;;;;;;5068487;28;20310;-76
2023/08/22 02:49:53;;;;;;;0.00;0.00;;;;;;;;;;5063074;28;20295;-76
2023/08/22 02:52:19;;;;;;;0.00;0.00;;;;;;;;;;5068396;28;20483;-74
2023/08/22 02:54:45;;;;;;;0.03;0.03;;;;;;;;;;5062971;28;20211;-75
2023/08/22 02:57:12;;;;;;;0.08;0.08;;;;;;;;;;5070188;28;20357;-74
2023/08/22 02:59:38;;;;;;;0.05;0.05;;;;;;;;;;5066964;28;20263;-74
2023/08/22 03:02:04;;;;;;;0.00;0.00;;;;;;;;;;5071391;28;20243;-75
2023/08/22 03:04:33;;;;;;;0.10;0.10;;;;;;;;;;5067328;28;20235;-75
2023/08/22 03:07:00;;;;;;;0.10;0.10;;;;;;;;;;5070707;28;20285;-74
2023/08/22 03:09:28;;;;;;;0.10;0.10;;;;;;;;;;5067455;28;20255;-76
2023/08/22 03:11:55;;;;;;;0.10;0.10;;;;;;;;;;5070159;28;20239;-75
2023/08/22 03:14:21;;;;;;;0.00;0.00;;;;;;;;;;5068129;28;20235;-75
2023/08/22 03:16:48;;;;;;;0.10;0.10;;;;;;;;;;5069275;28;20455;-76
2023/08/22 03:19:14;;;;;;;0.10;0.10;;;;;;;;;;5068996;28;20426;-75
2023/08/22 03:21:40;;;;;;;0.10;0.10;;;;;;;;;;5068146;28;20261;-75
2023/08/22 03:24:08;;;;;;;0.05;0.05;;;;;;;;;;5069554;28;20228;-75
2023/08/22 03:26:34;;;;;;;0.00;0.00;;;;;;;;;;5067223;28;20257;-76
2023/08/22 03:29:01;;;;;;;0.05;0.05;;;;;;;;;;5070168;28;20268;-75
2023/08/22 03:31:28;;;;;;;0.10;0.10;;;;;;;;;;5066188;28;20302;-75
2023/08/22 03:33:55;;;;;;;0.00;0.00;;;;;;;;;;5071536;28;20204;-75
2023/08/22 03:36:21;;;;;;;0.10;0.10;;;;;;;;;;5065379;28;20251;-77
2023/08/22 03:38:51;;;;;;;0.05;0.05;;;;;;;;;;5072208;28;20204;-75
2023/08/22 03:41:18;;;;;;;0.00;0.00;;;;;;;;;;5064732;28;20259;-75
2023/08/22 03:43:45;;;;;;;0.03;0.03;;;;;;;;;;5072680;28;20455;-75
2023/08/22 03:46:11;;;;;;;0.10;0.10;;;;;;;;;;5063787;28;20240;-74
2023/08/22 03:48:37;;;;;;;0.10;0.10;;;;;;;;;;5073030;28;20275;-75
2023/08/22 03:51:05;;;;;;;0.00;0.00;;;;;;;;;;5063022;28;20298;-75
2023/08/22 03:53:32;;;;;;;0.10;0.10;;;;;;;;;;5073803;28;20242;-75
2023/08/22 03:55:58;;;;;;;0.00;0.00;;;;;;;;;;5061870;28;20317;-75
2023/08/22 03:58:27;;;;;;;0.10;0.10;;;;;;;;;;5074572;28;20204;-75
2023/08/22 04:00:54;;;;;;;0.00;0.00;;;;;;;;;;5061335;28;20262;-75
2023/08/22 04:03:20;;;;;;;0.10;0.10;;;;;;;;;;5074848;28;20236;-75
2023/08/22 04:05:47;;;;;;;0.10;0.10;;;;;;;;;;5059946;28;20262;-75
2023/08/22 04:08:13;;;;;;;0.00;0.00;;;;;;;;;;5076027;28;20203;-75
2023/08/22 04:10:39;;;;;;;0.10;0.10;;;;;;;;;;5059374;28;20274;-75
2023/08/22 04:13:06;;;;;;;0.10;0.10;;;;;;;;;;5076818;28;20268;-74
2023/08/22 04:15:35;;;;;;;0.10;0.10;;;;;;;;;;5058471;28;20434;-75
2023/08/22 04:18:02;;;;;;;0.00;0.00;;;;;;;;;;5077565;28;20234;-74
2023/08/22 04:20:28;;;;;;;0.00;0.00;;;;;;;;;;5058090;28;20247;-76
2023/08/22 04:22:55;;;;;;;0.10;0.10;;;;;;;;;;5077840;28;20252;-75
2023/08/22 04:25:21;;;;;;;0.10;0.10;;;;;;;;;;5056736;28;20208;-74
2023/08/22 04:27:47;;;;;;;0.10;0.10;;;;;;;;;;5079298;28;20257;-75
2023/08/22 04:30:14;;;;;;;0.00;0.00;;;;;;;;;;5055608;28;20262;-75
2023/08/22 04:32:41;;;;;;;0.00;0.00;;;;;;;;;;5079757;28;20289;-75
2023/08/22 04:35:08;;;;;;;0.10;0.10;;;;;;;;;;5061751;28;20284;-74
2023/08/22 04:37:34;;;;;;;0.05;0.05;;;;;;;;;;5080420;28;20250;-75
2023/08/22 04:40:01;;;;;;;0.10;0.10;;;;;;;;;;5065150;28;20460;-74
2023/08/22 04:42:28;;;;;;;0.00;0.00;;;;;;;;;;5070113;28;20628;-74
2023/08/22 04:44:54;;;;;;;0.20;0.20;;;;;;;;;;5065072;28;20394;-75
2023/08/22 04:47:21;;;;;;;0.00;0.00;;;;;;;;;;5070048;28;20243;-75
2023/08/22 04:49:48;;;;;;;0.05;0.05;;;;;;;;;;5064864;28;20295;-75
2023/08/22 04:52:15;;;;;;;0.08;0.08;;;;;;;;;;5069954;28;20262;-74
2023/08/22 04:54:42;;;;;;;0.08;0.08;;;;;;;;;;5064590;28;20211;-75
2023/08/22 04:57:08;;;;;;;0.08;0.08;;;;;;;;;;5069769;28;20602;-74
2023/08/22 04:59:34;;;;;;;0.00;0.00;;;;;;;;;;5064320;28;20204;-75
2023/08/22 05:02:01;;;;;;;0.10;0.10;;;;;;;;;;5068662;28;20242;-74
2023/08/22 05:04:27;;;;;;;0.10;0.10;;;;;;;;;;5065616;28;20231;-75
2023/08/22 05:06:55;;;;;;;0.00;0.00;;;;;;;;;;5067808;28;20310;-74
2023/08/22 05:09:21;;;;;;;0.10;0.10;;;;;;;;;;5066208;28;20236;-74
2023/08/22 05:11:47;;;;;;;0.10;0.10;;;;;;;;;;5066779;28;20314;-74
2023/08/22 05:14:14;;;;;;;0.05;0.05;;;;;;;;;;5067043;28;20211;-74
2023/08/22 05:16:40;;;;;;;0.08;0.08;;;;;;;;;;5065706;28;20288;-74
2023/08/22 05:19:07;;;;;;;0.10;0.10;;;;;;;;;;5067124;28;20452;-74
2023/08/22 05:21:33;;;;;;;0.10;0.10;;;;;;;;;;5064922;28;20243;-75
2023/08/22 05:24:01;;;;;;;0.00;0.00;;;;;;;;;;5068437;28;20612;-76
2023/08/22 05:26:27;;;;;;;0.03;0.03;;;;;;;;;;5064179;28;20466;-76
2023/08/22 05:28:53;;;;;;;0.10;0.10;;;;;;;;;;5069142;28;20274;-76
2023/08/22 05:31:20;;;;;;;0.10;0.10;;;;;;;;;;5063058;28;20262;-75
2023/08/22 05:33:47;;;;;;;0.00;0.00;;;;;;;;;;5070242;28;20208;-75
2023/08/22 05:36:13;;;;;;;0.00;0.00;;;;;;;;;;5062221;28;20262;-75
2023/08/22 05:38:39;;;;;;;0.10;0.10;;;;;;;;;;5070683;28;20357;-75
2023/08/22 05:41:07;;;;;;;0.10;0.10;;;;;;;;;;5061214;28;20307;-75
2023/08/22 05:43:33;;;;;;;0.00;0.00;;;;;;;;;;5071525;28;20291;-75
2023/08/22 05:46:00;;;;;;;0.00;0.00;;;;;;;;;;5060442;28;20582;-75
2023/08/22 05:48:27;;;;;;;0.10;0.10;;;;;;;;;;5072288;28;20204;-75
2023/08/22 05:50:53;;;;;;;0.10;0.10;;;;;;;;;;5059530;28;20614;-75
2023/08/22 05:53:20;;;;;;;0.00;0.00;;;;;;;;;;5073266;28;20268;-75
2023/08/22 05:55:46;;;;;;;0.10;0.10;;;;;;;;;;5058683;28;20431;-75
2023/08/22 05:58:14;;;;;;;0.10;0.10;;;;;;;;;;5074005;28;20538;-75
2023/08/22 06:00:41;;;;;;;0.00;0.00;;;;;;;;;;5057146;28;20493;-75
2023/08/22 06:03:07;;;;;;;0.10;0.10;;;;;;;;;;5075591;28;20192;-75
2023/08/22 06:05:33;;;;;;;0.08;0.08;;;;;;;;;;5056713;28;20297;-75
2023/08/22 06:08:00;;;;;;;0.10;0.10;;;;;;;;;;5075833;28;20436;-75
2023/08/22 06:10:26;;;;;;;0.10;0.10;;;;;;;;;;5055614;28;20235;-75
2023/08/22 06:12:52;;;;;;;0.10;0.10;;;;;;;;;;5076843;28;20431;-75
2023/08/22 06:15:20;;;;;;;0.10;0.10;;;;;;;;;;5054709;28;20452;-75
2023/08/22 06:17:47;;;;;;;0.08;0.08;;;;;;;;;;5077631;28;20443;-75
2023/08/22 06:20:14;;;;;;;1.08;0.98;;;;;;;;;;5053686;28;20459;-75
2023/08/22 06:22:41;;;;;;;0.10;0.10;;;;;;;;;;5077779;28;20326;-75
2023/08/22 06:25:08;;;;;;;0.00;0.00;;;;;;;;;;5060930;28;20246;-75
2023/08/22 06:27:34;;;;;;;0.00;0.00;;;;;;;;;;5079075;28;20410;-79
2023/08/22 06:30:01;;;;;;;0.00;0.00;;;;;;;;;;5063353;28;20474;-79
2023/08/22 06:32:28;;;;;;;0.63;0.63;;;;;;;;;;5072609;28;20469;-79
2023/08/22 06:34:59;;;;;;;0.00;0.00;;;;;;;;;;5067671;28;20400;-80
2023/08/22 06:37:25;;;;;;;0.00;0.00;;;;;;;;;;5072681;28;20239;-80
2023/08/22 06:39:51;;;;;;;0.10;0.10;;;;;;;;;;5067353;28;20211;-79
2023/08/22 06:42:18;;;;;;;0.10;0.10;;;;;;;;;;5072629;28;20281;-80
2023/08/22 06:44:44;;;;;;;0.00;0.00;;;;;;;;;;5067051;28;20204;-80
2023/08/22 06:47:10;;;;;;;0.10;0.10;;;;;;;;;;5072436;28;20479;-79
2023/08/22 06:49:38;;;;;;;0.05;0.05;;;;;;;;;;5067166;28;20203;-80
2023/08/22 06:52:05;;;;;;;0.00;0.00;;;;;;;;;;5071727;28;20310;-80
2023/08/22 06:54:32;;;;;;;0.10;0.10;;;;;;;;;;5067535;28;20283;-80
2023/08/22 06:56:58;;;;;;;0.00;0.00;;;;;;;;;;5070987;28;20483;-79
2023/08/22 06:59:27;;;;;;;0.10;0.10;;;;;;;;;;5068045;28;20385;-81
2023/08/22 07:01:53;;;;;;;0.00;0.00;;;;;;;;;;5069486;28;20246;-79
2023/08/22 07:04:19;;;;;;;0.00;0.00;;;;;;;;;;5069103;28;20223;-81
2023/08/22 07:06:47;;;;;;;0.00;0.00;;;;;;;;;;5069093;28;20255;-80
2023/08/22 07:09:14;;;;;;;0.00;0.00;;;;;;;;;;5069303;28;20455;-80
2023/08/22 07:11:40;;;;;;;0.10;0.10;;;;;;;;;;5068179;28;20262;-80
2023/08/22 07:14:07;;;;;;;0.00;0.00;;;;;;;;;;5069993;28;20264;-81
2023/08/22 07:16:33;;;;;;;0.10;0.10;;;;;;;;;;5067379;28;20529;-81
2023/08/22 07:18:59;;;;;;;0.00;0.00;;;;;;;;;;5071130;28;20457;-80
2023/08/22 07:21:26;;;;;;;0.00;0.00;;;;;;;;;;5066297;28;20578;-81
2023/08/22 07:23:53;;;;;;;0.10;0.10;;;;;;;;;;5071977;28;20543;-76
2023/08/22 07:26:20;;;;;;;0.00;0.00;;;;;;;;;;5065633;28;20474;-75
2023/08/22 07:28:46;;;;;;;0.10;0.10;;;;;;;;;;5072704;28;20254;-75
2023/08/22 07:31:13;;;;;;;0.10;0.10;;;;;;;;;;5064507;28;20246;-76
2023/08/22 07:33:39;;;;;;;0.00;0.00;;;;;;;;;;5073373;28;20367;-75
2023/08/22 07:36:05;;;;;;;0.05;0.05;;;;;;;;;;5063249;28;20575;-75
2023/08/22 07:38:32;;;;;;;0.03;0.03;;;;;;;;;;5074136;28;20231;-75
2023/08/22 07:40:59;;;;;;;0.20;0.20;;;;;;;;;;5062628;28;20309;-75
2023/08/22 07:43:26;;;;;;;0.00;0.00;;;;;;;;;;5074296;28;20235;-76
2023/08/22 07:45:52;;;;;;;0.10;0.10;;;;;;;;;;5061757;28;20491;-75
2023/08/22 07:48:18;;;;;;;0.00;0.00;;;;;;;;;;5075936;28;20396;-75
2023/08/22 07:50:45;;;;;;;0.00;0.00;;;;;;;;;;5060318;28;20290;-75
2023/08/22 07:53:11;;;;;;;0.00;0.00;;;;;;;;;;5076562;28;20228;-75
2023/08/22 07:55:37;;;;;;;0.08;0.08;;;;;;;;;;5059767;28;20262;-75
2023/08/22 07:58:05;;;;;;;0.00;0.00;;;;;;;;;;5077403;28;20243;-75
2023/08/22 08:00:33;;;;;;;0.00;0.00;;;;;;;;;;5058759;28;20307;-74
2023/08/22 08:02:59;;;;;;;0.00;0.00;;;;;;;;;;5078328;28;20193;-76
2023/08/22 08:05:26;;;;;;;0.00;0.00;;;;;;;;;;5057898;28;20204;-75
2023/08/22 08:07:52;;;;;;;0.00;0.00;;;;;;;;;;5079056;28;20199;-75
2023/08/22 08:10:21;;;;;;;0.00;0.00;;;;;;;;;;5056707;28;20436;-76
2023/08/22 08:12:47;;;;;;;0.00;0.00;;;;;;;;;;5079695;28;20294;-76
2023/08/22 08:15:15;;;;;;;0.10;0.10;;;;;;;;;;5056070;28;20192;-75
2023/08/22 08:17:41;;;;;;;0.00;0.00;;;;;;;;;;5080378;28;20374;-76
2023/08/22 08:20:10;;;;;;;0.00;0.00;;;;;;;;;;5063919;28;20251;-75
2023/08/22 08:22:37;;;;;;;0.00;0.00;;;;;;;;;;5080656;28;20232;-75
2023/08/22 08:25:03;;;;;;;0.00;0.00;;;;;;;;;;5065412;28;20275;-75
2023/08/22 08:27:31;;;;;;;0.00;0.00;;;;;;;;;;5070578;28;20248;-75
2023/08/22 08:29:57;;;;;;;0.00;0.00;;;;;;;;;;5065405;28;20227;-74
2023/08/22 08:32:25;;;;;;;0.00;0.00;;;;;;;;;;5070351;28;20242;-74
2023/08/22 08:34:51;;;;;;;0.00;0.00;;;;;;;;;;5065299;28;20241;-74
2023/08/22 08:37:18;;;;;;;0.00;0.00;;;;;;;;;;5070236;28;20314;-74
2023/08/22 08:39:44;;;;;;;0.00;0.00;;;;;;;;;;5065184;28;20275;-74
2023/08/22 08:42:12;;;;;;;0.00;0.00;;;;;;;;;;5070131;28;20235;-75
2023/08/22 08:44:38;;;;;;;0.00;0.00;;;;;;;;;;5065125;28;20395;-74
2023/08/22 08:47:07;;;;;;;0.00;0.00;;;;;;;;;;5069606;28;20246;-74
2023/08/22 08:49:35;;;;;;;0.00;0.00;;;;;;;;;;5064889;28;20204;-74
2023/08/22 08:52:03;;;;;;;0.10;0.10;;;;;;;;;;5068937;28;20401;-75
2023/08/22 08:54:29;;;;;;;0.00;0.00;;;;;;;;;;5065302;28;20212;-78
2023/08/22 08:56:56;;;;;;;0.00;0.00;;;;;;;;;;5068146;28;20246;-77
2023/08/22 08:59:22;;;;;;;0.00;0.00;;;;;;;;;;5066179;28;20397;-77
2023/08/22 09:01:50;;;;;;;0.00;0.00;;;;;;;;;;5067209;28;20269;-77
2023/08/22 09:04:16;;;;;;;0.00;0.00;;;;;;;;;;5066596;28;20223;-77
2023/08/22 09:06:45;;;;;;;0.00;0.00;;;;;;;;;;5066622;28;20307;-77
2023/08/22 09:09:13;;;;;;;0.00;0.00;;;;;;;;;;5067082;28;20204;-77
2023/08/22 09:11:41;;;;;;;0.00;0.00;;;;;;;;;;5065844;28;20311;-78
2023/08/22 09:14:07;;;;;;;0.00;0.00;;;;;;;;;;5067541;28;20280;-77
2023/08/22 09:16:34;;;;;;;0.00;0.00;;;;;;;;;;5065494;28;20298;-79
2023/08/22 09:19:00;;;;;;;0.95;0.95;;;;;;;;;;5068613;28;20280;-77
2023/08/22 09:21:27;;;;;;;0.00;0.00;;;;;;;;;;5064165;28;20243;-83
2023/08/22 09:23:58;;;;;;;0.00;0.00;;;;;;;;;;5069099;28;20259;-84
2023/08/22 09:26:25;;;;;;;0.00;0.00;;;;;;;;;;5064155;28;20444;-80
2023/08/22 09:28:51;;;;;;;0.10;0.10;;;;;;;;;;5069633;28;20235;-82
2023/08/22 09:31:24;;;;;;;0.00;0.00;;;;;;;;;;5062826;28;20251;-82
2023/08/22 09:33:51;;;;;;;0.00;0.00;;;;;;;;;;5069680;28;20398;-79
2023/08/22 09:36:19;;;;;;;0.00;0.00;;;;;;;;;;5062876;28;20239;-78
2023/08/22 09:38:52;;;;;;;0.00;0.00;;;;;;;;;;5069997;28;20207;-79
2023/08/22 09:41:23;;;;;;;0.00;0.00;;;;;;;;;;5062881;28;20239;-79
2023/08/22 09:43:52;;;;;;;0.00;0.00;;;;;;;;;;5069625;28;20439;-78
2023/08/22 09:46:20;;;;;;;0.00;0.00;;;;;;;;;;5062727;28;20239;-80
2023/08/22 09:48:47;;;;;;;0.00;0.00;;;;;;;;;;5069882;28;20271;-80
2023/08/22 09:51:15;;;;;;;0.00;0.00;;;;;;;;;;5062008;28;20441;-77
2023/08/22 09:53:43;;;;;;;0.20;0.20;;;;;;;;;;5070477;28;20211;-77
2023/08/22 09:56:09;;;;;;;0.00;0.00;;;;;;;;;;5061555;28;20306;-80
2023/08/22 09:58:37;;;;;;;0.00;0.00;;;;;;;;;;5071381;28;20204;-77
2023/08/22 10:01:04;;;;;;;0.00;0.00;;;;;;;;;;5060714;28;20235;-78
2023/08/22 10:03:31;;;;;;;0.05;0.05;;;;;;;;;;5072126;28;20633;-78
2023/08/22 10:05:57;;;;;;;0.00;0.00;;;;;;;;;;5059300;28;20243;-80
2023/08/22 10:08:24;;;;;;;0.00;0.00;;;;;;;;;;5072708;28;20211;-78
2023/08/22 10:10:50;;;;;;;0.00;0.00;;;;;;;;;;5058488;28;20251;-81
2023/08/22 10:13:16;;;;;;;0.10;0.10;;;;;;;;;;5073467;28;20211;-82
2023/08/22 10:15:45;;;;;;;0.00;0.00;;;;;;;;;;5057893;28;20254;-79
2023/08/22 10:18:12;;;;;;;0.08;0.08;;;;;;;;;;5074248;28;20226;-81
2023/08/22 10:20:40;;;;;;;0.00;0.00;;;;;;;;;;5057287;28;20262;-80
2023/08/22 10:23:08;;;;;;;0.10;0.10;;;;;;;;;;5074625;28;20265;-82
2023/08/22 10:25:47;;;;;;;0.00;0.00;;;;;;;;;;5056820;28;20238;-79
2023/08/22 10:28:14;;;;;;;0.00;0.00;;;;;;;;;;5073676;28;20204;-79
2023/08/22 10:30:55;;;;;;;0.00;0.00;;;;;;;;;;5057492;28;20246;-82
2023/08/22 10:33:28;;;;;;;0.10;0.10;;;;;;;;;;5072068;28;20275;-82
2023/08/22 10:36:04;;;;;;;0.10;0.10;;;;;;;;;;5059289;28;20258;-82
2023/08/22 10:38:46;;;;;;;0.00;0.00;;;;;;;;;;5071849;28;20397;-80
2023/08/22 10:41:13;;;;;;;0.00;0.00;;;;;;;;;;5061327;28;20251;-77
2023/08/22 10:43:40;;;;;;;0.00;0.00;;;;;;;;;;5070367;28;20227;-78
2023/08/22 10:46:06;;;;;;;0.10;0.10;;;;;;;;;;5060584;28;20458;-78
2023/08/22 10:48:36;;;;;;;0.00;0.00;;;;;;;;;;5071431;28;20204;-78
2023/08/22 10:51:06;;;;;;;0.00;0.00;;;;;;;;;;5060251;28;20250;-81
2023/08/22 10:53:41;;;;;;;1.85;1.85;;;;;;;;;;5070956;28;20279;-82
2023/08/22 10:56:17;;;;;;;0.00;0.00;;;;;;;;;;5060811;28;20303;-81
2023/08/22 10:58:43;;;;;;;0.10;0.10;;;;;;;;;;5070073;28;20191;-81
2023/08/22 11:01:11;;;;;;;0.00;0.00;;;;;;;;;;5061063;28;20261;-82
2023/08/22 11:03:38;;;;;;;0.05;0.05;;;;;;;;;;5070626;28;20231;-80
2023/08/22 11:06:11;;;;;;;0.00;0.00;;;;;;;;;;5061703;28;20358;-81
2023/08/22 11:08:37;;;;;;;0.00;0.00;;;;;;;;;;5070416;28;20205;-81
2023/08/22 11:11:04;;;;;;;0.00;0.00;;;;;;;;;;5060017;28;20239;-78
2023/08/22 11:13:38;;;;;;;0.00;0.00;;;;;;;;;;5071115;28;20204;-79
2023/08/22 11:16:07;;;;;;;0.00;0.00;;;;;;;;;;5059813;28;20452;-78
2023/08/22 11:18:34;;;;;;;0.00;0.00;;;;;;;;;;5073403;28;20503;-82
2023/08/22 11:21:02;;;;;;;0.00;0.00;;;;;;;;;;5063282;28;20250;-83
2023/08/22 11:23:31;;;;;;;0.00;0.00;;;;;;;;;;5074954;28;20216;-83
2023/08/22 11:25:57;;;;;;;0.00;0.00;;;;;;;;;;5062666;28;20251;-82
2023/08/22 11:28:29;;;;;;;0.00;0.00;;;;;;;;;;5075970;28;20204;-78
2023/08/22 11:30:55;;;;;;;0.00;0.00;;;;;;;;;;5062546;28;20495;-79
2023/08/22 11:33:22;;;;;;;0.00;0.00;;;;;;;;;;5075602;28;20235;-82
2023/08/22 11:35:49;;;;;;;0.00;0.00;;;;;;;;;;5066121;28;20239;-86
2023/08/22 11:38:16;;;;;;;0.00;0.00;;;;;;;;;;5077613;28;20231;-85
2023/08/22 11:40:43;;;;;;;0.00;0.00;;;;;;;;;;5062616;28;20243;-84
2023/08/22 11:43:10;;;;;;;0.00;0.00;;;;;;;;;;5077848;28;20271;-84
2023/08/22 11:45:45;;;;;;;0.00;0.00;;;;;;;;;;5059856;28;20454;-79
2023/08/22 11:48:11;;;;;;;0.00;0.00;;;;;;;;;;5077531;28;20378;-85
2023/08/22 11:50:37;;;;;;;0.00;0.00;;;;;;;;;;5060461;28;20239;-84
2023/08/22 11:53:09;;;;;;;0.00;0.00;;;;;;;;;;5078329;28;20219;-83
2023/08/22 11:55:39;;;;;;;0.38;0.38;;;;;;;;;;5059958;28;20258;-80
2023/08/22 11:58:05;;;;;;;0.00;0.00;;;;;;;;;;5078282;28;20528;-77
2023/08/22 12:00:32;;;;;;;0.00;0.00;;;;;;;;;;5058533;28;20720;-82
2023/08/22 12:03:01;;;;;;;0.00;0.00;;;;;;;;;;5079673;28;20244;-86
2023/08/22 12:05:30;;;;;;;0.00;0.00;;;;;;;;;;5059160;28;20248;-84
2023/08/22 12:07:57;;;;;;;0.00;0.00;;;;;;;;;;5078937;28;20219;-85
2023/08/22 12:10:23;;;;;;;0.00;0.00;;;;;;;;;;5058617;28;20403;-85
2023/08/22 12:12:51;;;;;;;0.10;0.10;;;;;;;;;;5081576;28;20216;-85
2023/08/22 12:15:17;;;;;;;0.00;0.00;;;;;;;;;;5058197;28;20215;-80
2023/08/22 12:17:44;;;;;;;0.00;0.00;;;;;;;;;;5079544;28;20260;-79
2023/08/22 12:20:10;;;;;;;0.00;0.00;;;;;;;;;;5055673;28;20235;-79
2023/08/22 12:22:37;;;;;;;0.00;0.00;;;;;;;;;;5080951;28;20215;-85
2023/08/22 12:25:03;;;;;;;0.00;0.00;;;;;;;;;;5066329;28;20262;-85
2023/08/22 12:27:29;;;;;;;0.00;0.00;;;;;;;;;;5073430;28;20263;-85
2023/08/22 12:29:57;;;;;;;0.00;0.00;;;;;;;;;;5065974;28;20271;-78
2023/08/22 12:32:24;;;;;;;0.00;0.00;;;;;;;;;;5072402;28;20298;-84
2023/08/22 12:34:50;;;;;;;0.00;0.00;;;;;;;;;;5065909;28;20203;-79
2023/08/22 12:37:16;;;;;;;0.00;0.00;;;;;;;;;;5070694;28;20298;-79
2023/08/22 12:39:43;;;;;;;0.00;0.00;;;;;;;;;;5065529;28;20204;-79
2023/08/22 12:42:09;;;;;;;0.00;0.00;;;;;;;;;;5070256;28;20303;-80
2023/08/22 12:44:35;;;;;;;0.00;0.00;;;;;;;;;;5064879;28;20236;-83
2023/08/22 12:47:03;;;;;;;0.00;0.00;;;;;;;;;;5069423;28;20472;-80
2023/08/22 12:49:30;;;;;;;0.10;0.10;;;;;;;;;;5064696;28;20242;-78
2023/08/22 12:51:56;;;;;;;0.00;0.00;;;;;;;;;;5068306;28;20245;-76
2023/08/22 12:54:22;;;;;;;0.00;0.00;;;;;;;;;;5066806;28;20394;-81
2023/08/22 12:56:49;;;;;;;0.00;0.00;;;;;;;;;;5067535;28;20239;-82
2023/08/22 12:59:15;;;;;;;0.00;0.00;;;;;;;;;;5066988;28;20239;-82
2023/08/22 13:01:41;;;;;;;0.00;0.00;;;;;;;;;;5066510;28;20255;-81
2023/08/22 13:04:13;;;;;;;0.00;0.00;;;;;;;;;;5068080;28;20227;-78
2023/08/22 13:06:39;;;;;;;0.00;0.00;;;;;;;;;;5068045;28;20243;-83
2023/08/22 13:09:10;;;;;;;0.00;0.00;;;;;;;;;;5068172;28;20203;-78
2023/08/22 13:11:36;;;;;;;0.00;0.00;;;;;;;;;;5065963;28;20239;-77
2023/08/22 13:14:03;;;;;;;0.00;0.00;;;;;;;;;;5068253;28;20570;-80
2023/08/22 13:16:29;;;;;;;0.00;0.00;;;;;;;;;;5064527;28;20535;-77
2023/08/22 13:18:55;;;;;;;0.00;0.00;;;;;;;;;;5069514;28;20235;-79
2023/08/22 13:21:23;;;;;;;0.00;0.00;;;;;;;;;;5063553;28;20243;-78
2023/08/22 13:23:49;;;;;;;0.00;0.00;;;;;;;;;;5069826;28;20258;-79
2023/08/22 13:26:16;;;;;;;0.00;0.00;;;;;;;;;;5062766;28;20247;-75
2023/08/22 13:28:42;;;;;;;0.00;0.00;;;;;;;;;;5070757;28;20279;-76
2023/08/22 13:31:10;;;;;;;0.00;0.00;;;;;;;;;;5061783;28;20322;-77
2023/08/22 13:33:36;;;;;;;0.00;0.00;;;;;;;;;;5071266;28;20224;-77
2023/08/22 13:36:03;;;;;;;0.00;0.00;;;;;;;;;;5060966;28;20318;-77
2023/08/22 13:38:31;;;;;;;0.00;0.00;;;;;;;;;;5072243;28;20271;-76
2023/08/22 13:40:57;;;;;;;0.00;0.00;;;;;;;;;;5059526;28;20574;-77
2023/08/22 13:43:23;;;;;;;0.00;0.00;;;;;;;;;;5073220;28;20450;-75
2023/08/22 13:45:50;;;;;;;0.00;0.00;;;;;;;;;;5059202;28;20262;-74
2023/08/22 13:48:16;;;;;;;0.00;0.00;;;;;;;;;;5074122;28;20208;-74
2023/08/22 13:50:42;;;;;;;0.00;0.00;;;;;;;;;;5057963;28;20247;-75
2023/08/22 13:53:09;;;;;;;0.00;0.00;;;;;;;;;;5074977;28;20222;-75
2023/08/22 13:55:38;;;;;;;0.00;0.00;;;;;;;;;;5057296;28;20250;-75
2023/08/22 13:58:05;;;;;;;0.00;0.00;;;;;;;;;;5075044;28;20239;-75
2023/08/22 14:00:31;;;;;;;0.00;0.00;;;;;;;;;;5056480;28;20310;-75
2023/08/22 14:02:58;;;;;;;0.10;0.10;;;;;;;;;;5076225;28;20448;-74
2023/08/22 14:05:24;;;;;;;0.00;0.00;;;;;;;;;;5055727;28;20406;-75
2023/08/22 14:07:50;;;;;;;0.00;0.00;;;;;;;;;;5077207;28;20442;-75
2023/08/22 14:10:23;;;;;;;0.00;0.00;;;;;;;;;;5054670;28;20238;-75
2023/08/22 14:12:51;;;;;;;0.00;0.00;;;;;;;;;;5077251;28;20396;-75
2023/08/22 14:15:17;;;;;;;0.00;0.00;;;;;;;;;;5054577;28;20239;-75
2023/08/22 14:17:43;;;;;;;0.00;0.00;;;;;;;;;;5077694;28;20259;-76
2023/08/22 14:20:10;;;;;;;0.00;0.00;;;;;;;;;;5053481;28;20204;-76
2023/08/22 14:22:37;;;;;;;0.05;0.05;;;;;;;;;;5078458;28;20287;-76
2023/08/22 14:25:03;;;;;;;0.00;0.00;;;;;;;;;;5063629;28;20530;-77
2023/08/22 14:27:30;;;;;;;0.00;0.00;;;;;;;;;;5068729;28;20236;-77
2023/08/22 14:29:57;;;;;;;0.00;0.00;;;;;;;;;;5063664;28;20391;-76
2023/08/22 14:32:24;;;;;;;0.00;0.00;;;;;;;;;;5068628;28;20260;-77
2023/08/22 14:34:50;;;;;;;0.00;0.00;;;;;;;;;;5063655;28;20203;-77
2023/08/22 14:37:17;;;;;;;0.00;0.00;;;;;;;;;;5068539;28;20261;-77
2023/08/22 14:39:43;;;;;;;0.00;0.00;;;;;;;;;;5063568;28;20242;-77
2023/08/22 14:42:09;;;;;;;0.00;0.00;;;;;;;;;;5068513;28;20250;-76